createdAt,value
2022-12-08T00:01:14.481Z,16.20
2022-12-08T00:03:41.426Z,15.10
2022-12-08T00:06:30.804Z,15.20
2022-12-08T00:09:15.901Z,16.30
2022-12-08T00:11:42.275Z,16.20
2022-12-08T00:14:08.766Z,14.70
2022-12-08T00:16:35.129Z,18.10
2022-12-08T00:19:01.659Z,12.80
2022-12-08T00:21:28.144Z,12.50
2022-12-08T00:23:55.535Z,12.60
2022-12-08T00:26:21.982Z,12.80
2022-12-08T00:28:48.371Z,11.80
2022-12-08T00:31:15.017Z,14.00
2022-12-08T00:33:41.665Z,15.40
2022-12-08T00:36:09.304Z,15.80
2022-12-08T00:38:36.175Z,11.50
2022-12-08T00:41:02.984Z,13.90
2022-12-08T00:43:29.437Z,18.00
2022-12-08T00:45:55.812Z,15.00
2022-12-08T00:48:22.473Z,18.30
2022-12-08T00:50:48.830Z,18.60
2022-12-08T00:53:15.170Z,16.90
2022-12-08T00:55:41.897Z,12.70
2022-12-08T00:58:08.309Z,9.00
2022-12-08T01:00:34.711Z,16.40
2022-12-08T01:03:01.101Z,21.20
2022-12-08T01:05:27.532Z,14.90
2022-12-08T01:07:53.887Z,13.90
2022-12-08T01:10:20.330Z,12.20
2022-12-08T01:12:46.634Z,13.60
2022-12-08T01:15:12.911Z,12.70
2022-12-08T01:17:39.400Z,13.50
2022-12-08T01:20:06.213Z,15.40
2022-12-08T01:22:33.174Z,12.80
2022-12-08T01:24:59.460Z,10.90
2022-12-08T01:27:25.790Z,13.70
2022-12-08T01:29:52.110Z,10.60
2022-12-08T01:32:18.391Z,13.70
2022-12-08T01:34:44.691Z,12.30
2022-12-08T01:37:12.001Z,15.40
2022-12-08T01:39:40.303Z,14.30
2022-12-08T01:42:17.699Z,8.50
2022-12-08T01:44:44.019Z,12.80
2022-12-08T01:47:11.028Z,22.10
2022-12-08T01:49:37.374Z,17.30
2022-12-08T01:52:08.398Z,15.60
2022-12-08T01:54:38.314Z,15.20
2022-12-08T01:57:12.968Z,11.60
2022-12-08T01:59:42.103Z,12.80
2022-12-08T02:02:09.862Z,10.50
2022-12-08T02:04:36.767Z,10.00
2022-12-08T02:07:07.760Z,12.10
2022-12-08T02:09:34.939Z,11.00
2022-12-08T02:12:01.416Z,11.60
2022-12-08T02:14:27.749Z,12.40
2022-12-08T02:17:13.055Z,10.20
2022-12-08T02:19:39.326Z,8.90
2022-12-08T02:22:13.261Z,13.00
2022-12-08T02:24:47.347Z,11.80
2022-12-08T02:27:13.588Z,9.70
2022-12-08T02:29:39.896Z,10.20
2022-12-08T02:32:25.214Z,11.30
2022-12-08T02:35:12.829Z,10.50
2022-12-08T02:37:49.742Z,11.00
2022-12-08T02:40:20.783Z,12.10
2022-12-08T02:42:53.345Z,14.70
2022-12-08T02:45:22.585Z,12.90
2022-12-08T02:47:49.316Z,13.50
2022-12-08T02:50:15.647Z,12.40
2022-12-08T02:52:43.433Z,11.60
2022-12-08T02:55:22.173Z,15.40
2022-12-08T02:57:48.567Z,9.40
2022-12-08T03:00:16.165Z,14.10
2022-12-08T03:03:00.930Z,14.20
2022-12-08T03:05:42.699Z,11.00
2022-12-08T03:08:12.281Z,15.00
2022-12-08T03:10:51.813Z,18.50
2022-12-08T03:13:37.008Z,13.40
2022-12-08T03:16:05.860Z,18.30
2022-12-08T03:18:35.713Z,15.90
2022-12-08T03:21:03.938Z,11.30
2022-12-08T03:23:30.522Z,13.60
2022-12-08T03:26:03.640Z,15.60
2022-12-08T03:28:30.365Z,12.40
2022-12-08T03:30:58.524Z,14.60
2022-12-08T03:33:28.363Z,14.70
2022-12-08T03:35:54.984Z,12.40
2022-12-08T03:38:21.536Z,12.70
2022-12-08T03:41:07.100Z,12.80
2022-12-08T03:43:33.418Z,14.40
2022-12-08T03:45:59.806Z,14.90
2022-12-08T03:48:26.235Z,11.70
2022-12-08T03:50:52.599Z,12.00
2022-12-08T03:53:18.898Z,14.90
2022-12-08T03:55:45.229Z,14.30
2022-12-08T03:58:11.523Z,13.20
2022-12-08T04:00:37.827Z,14.80
2022-12-08T04:03:05.840Z,12.40
2022-12-08T04:05:32.203Z,12.30
2022-12-08T04:07:58.652Z,13.50
2022-12-08T04:10:25.069Z,13.60
2022-12-08T04:12:51.416Z,10.70
2022-12-08T04:15:17.783Z,17.90
2022-12-08T04:17:44.092Z,15.70
2022-12-08T04:20:10.822Z,15.40
2022-12-08T04:22:37.088Z,14.20
2022-12-08T04:25:03.853Z,14.10
2022-12-08T04:27:30.191Z,11.20
2022-12-08T04:29:56.503Z,12.80
2022-12-08T04:32:22.801Z,13.20
2022-12-08T04:34:49.101Z,14.60
2022-12-08T04:37:15.415Z,12.80
2022-12-08T04:39:41.731Z,8.90
2022-12-08T04:42:08.022Z,6.50
2022-12-08T04:44:34.703Z,11.30
2022-12-08T04:47:01.051Z,16.00
2022-12-08T04:49:27.463Z,15.00
2022-12-08T04:51:53.874Z,16.80
2022-12-08T04:54:20.214Z,15.70
2022-12-08T04:56:46.488Z,16.50
2022-12-08T04:59:12.757Z,15.10
2022-12-08T05:01:39.248Z,26.30
2022-12-08T05:04:05.762Z,30.70
2022-12-08T05:06:32.041Z,16.50
2022-12-08T05:08:58.425Z,15.40
2022-12-08T05:11:24.830Z,24.30
2022-12-08T05:13:51.245Z,18.70
2022-12-08T05:16:17.669Z,16.40
2022-12-08T05:18:44.231Z,30.80
2022-12-08T05:21:10.565Z,34.90
2022-12-08T05:23:37.189Z,26.70
2022-12-08T05:26:03.833Z,18.20
2022-12-08T05:28:41.261Z,22.10
2022-12-08T05:31:08.883Z,32.20
2022-12-08T05:33:35.224Z,29.00
2022-12-08T05:36:01.516Z,24.60
2022-12-08T05:38:28.798Z,26.90
2022-12-08T05:40:55.130Z,23.70
2022-12-08T05:43:21.437Z,28.30
2022-12-08T05:45:48.189Z,56.60
2022-12-08T05:48:14.642Z,33.90
2022-12-08T05:50:45.313Z,18.50
2022-12-08T05:53:11.589Z,11.50
2022-12-08T05:55:37.920Z,15.00
2022-12-08T05:58:07.824Z,18.70
2022-12-08T06:00:34.690Z,15.50
2022-12-08T06:03:01.181Z,13.50
2022-12-08T06:05:27.726Z,15.70
2022-12-08T06:07:54.128Z,24.10
2022-12-08T06:10:20.641Z,12.40
2022-12-08T06:12:47.060Z,14.90
2022-12-08T06:15:13.479Z,11.30
2022-12-08T06:17:39.786Z,14.00
2022-12-08T06:20:06.790Z,7.60
2022-12-08T06:22:33.915Z,11.80
2022-12-08T06:25:00.204Z,9.90
2022-12-08T06:27:26.572Z,10.50
2022-12-08T06:29:52.898Z,20.40
2022-12-08T06:32:24.369Z,13.50
2022-12-08T06:34:53.574Z,26.60
2022-12-08T06:37:19.963Z,25.00
2022-12-08T06:39:46.316Z,30.30
2022-12-08T06:42:31.597Z,30.20
2022-12-08T06:44:58.111Z,12.50
2022-12-08T06:47:26.295Z,10.30
2022-12-08T06:49:53.143Z,14.40
2022-12-08T06:52:19.580Z,10.10
2022-12-08T06:54:45.947Z,12.00
2022-12-08T06:57:12.281Z,12.10
2022-12-08T06:59:39.140Z,9.50
2022-12-08T07:02:05.515Z,10.10
2022-12-08T07:04:32.085Z,10.40
2022-12-08T07:06:58.480Z,10.40
2022-12-08T07:09:24.800Z,8.50
2022-12-08T07:11:51.149Z,9.30
2022-12-08T07:14:17.825Z,8.40
2022-12-08T07:16:44.192Z,9.50
2022-12-08T07:19:10.633Z,10.50
2022-12-08T07:21:37.112Z,10.50
2022-12-08T07:24:03.511Z,9.80
2022-12-08T07:26:30.105Z,8.80
2022-12-08T07:28:56.428Z,8.80
2022-12-08T07:31:23.971Z,9.60
2022-12-08T07:33:51.128Z,11.10
2022-12-08T07:36:17.440Z,12.70
2022-12-08T07:38:43.796Z,8.50
2022-12-08T07:41:17.351Z,9.60
2022-12-08T07:43:43.742Z,13.80
2022-12-08T07:46:13.396Z,9.30
2022-12-08T07:48:39.769Z,8.40
2022-12-08T07:51:06.144Z,10.20
2022-12-08T07:53:32.483Z,16.60
2022-12-08T07:55:58.797Z,16.40
2022-12-08T07:58:25.660Z,10.50
2022-12-08T08:00:52.250Z,9.50
2022-12-08T08:03:19.008Z,13.50
2022-12-08T08:05:47.640Z,10.30
2022-12-08T08:08:14.017Z,10.90
2022-12-08T08:10:40.464Z,11.70
2022-12-08T08:13:07.612Z,9.10
2022-12-08T08:15:34.143Z,7.50
2022-12-08T08:18:00.707Z,10.70
2022-12-08T08:20:27.021Z,10.50
2022-12-08T08:22:53.366Z,12.00
2022-12-08T08:25:22.066Z,11.70
2022-12-08T08:27:49.044Z,8.30
2022-12-08T08:30:20.474Z,8.70
2022-12-08T08:32:47.945Z,9.90
2022-12-08T08:35:14.338Z,10.50
2022-12-08T08:37:44.377Z,8.80
2022-12-08T08:40:14.886Z,12.20
2022-12-08T08:42:41.184Z,14.40
2022-12-08T08:45:07.715Z,15.90
2022-12-08T08:47:34.067Z,11.00
2022-12-08T08:50:00.517Z,11.40
2022-12-08T08:52:27.127Z,10.00
2022-12-08T08:54:53.403Z,12.30
2022-12-08T08:57:25.281Z,11.10
2022-12-08T08:59:52.687Z,13.30
2022-12-08T09:02:19.408Z,10.20
2022-12-08T09:04:45.965Z,11.40
2022-12-08T09:07:12.478Z,12.20
2022-12-08T09:09:39.085Z,22.60
2022-12-08T09:12:06.090Z,16.70
2022-12-08T09:14:32.535Z,16.90
2022-12-08T09:16:58.871Z,15.90
2022-12-08T09:19:25.214Z,18.90
2022-12-08T09:21:51.542Z,20.70
2022-12-08T09:24:17.916Z,23.50
2022-12-08T09:26:44.310Z,18.10
2022-12-08T09:29:11.212Z,15.10
2022-12-08T09:31:37.635Z,18.20
2022-12-08T09:34:04.320Z,13.70
2022-12-08T09:36:30.942Z,20.10
2022-12-08T09:38:57.479Z,16.20
2022-12-08T09:41:42.039Z,12.30
2022-12-08T09:44:20.705Z,10.70
2022-12-08T09:46:47.915Z,10.50
2022-12-08T09:49:15.880Z,11.30
2022-12-08T09:51:43.412Z,13.40
2022-12-08T09:54:15.715Z,12.50
2022-12-08T09:56:42.055Z,20.50
2022-12-08T09:59:08.344Z,17.00
2022-12-08T10:01:37.853Z,15.50
2022-12-08T10:04:11.813Z,10.70
2022-12-08T10:06:43.322Z,6.90
2022-12-08T10:09:12.435Z,8.40
2022-12-08T10:11:42.148Z,8.00
2022-12-08T10:14:11.518Z,14.30
2022-12-08T10:16:41.966Z,13.10
2022-12-08T10:19:19.867Z,10.60
2022-12-08T10:21:46.693Z,11.40
2022-12-08T10:24:21.612Z,12.40
2022-12-08T10:26:48.681Z,16.00
2022-12-08T10:29:15.142Z,12.60
2022-12-08T10:31:42.561Z,15.20
2022-12-08T10:34:19.919Z,16.50
2022-12-08T10:36:47.663Z,15.00
2022-12-08T10:39:46.427Z,13.00
2022-12-08T10:42:12.772Z,17.10
2022-12-08T10:45:00.049Z,18.70
2022-12-08T10:47:27.406Z,19.20
2022-12-08T10:50:06.233Z,15.20
2022-12-08T10:52:36.939Z,14.70
2022-12-08T10:55:03.606Z,15.00
2022-12-08T10:57:30.051Z,13.90
2022-12-08T10:59:56.815Z,9.50
2022-12-08T11:02:23.674Z,16.60
2022-12-08T11:04:58.383Z,12.50
2022-12-08T11:07:24.959Z,14.20
2022-12-08T11:09:54.910Z,10.80
2022-12-08T11:12:21.962Z,15.50
2022-12-08T11:14:49.930Z,15.60
2022-12-08T11:17:22.075Z,17.50
2022-12-08T11:19:54.243Z,14.50
2022-12-08T11:22:20.619Z,15.40
2022-12-08T11:24:55.664Z,11.60
2022-12-08T11:27:22.190Z,12.00
2022-12-08T11:29:48.550Z,14.10
2022-12-08T11:32:14.851Z,18.80
2022-12-08T11:34:46.179Z,18.00
2022-12-08T11:37:18.192Z,18.30
2022-12-08T11:39:48.053Z,15.60
2022-12-08T11:42:16.260Z,16.80
2022-12-08T11:44:51.836Z,25.40
2022-12-08T11:47:21.891Z,21.20
2022-12-08T11:49:49.758Z,26.40
2022-12-08T11:52:19.261Z,21.10
2022-12-08T11:54:49.366Z,18.40
2022-12-08T11:57:19.977Z,15.40
2022-12-08T11:59:50.729Z,18.90
2022-12-08T12:02:21.405Z,22.20
2022-12-08T12:07:25.993Z,26.70
2022-12-08T12:10:08.806Z,28.20
2022-12-08T12:12:42.858Z,20.30
2022-12-08T12:15:20.764Z,21.10
2022-12-08T12:17:47.078Z,22.20
2022-12-08T12:20:13.648Z,17.10
2022-12-08T12:22:40.478Z,21.50
2022-12-08T12:25:15.185Z,16.50
2022-12-08T12:27:43.576Z,17.10
2022-12-08T12:30:31.560Z,18.00
2022-12-08T12:33:00.034Z,13.50
2022-12-08T12:35:27.506Z,13.50
2022-12-08T12:37:57.241Z,16.00
2022-12-08T12:40:25.310Z,12.40
2022-12-08T12:42:54.731Z,16.70
2022-12-08T12:45:21.011Z,14.90
2022-12-08T12:47:57.174Z,30.60
2022-12-08T12:50:32.989Z,19.90
2022-12-08T12:53:05.868Z,10.30
2022-12-08T12:55:53.587Z,11.40
2022-12-08T12:58:19.861Z,10.40
2022-12-08T13:00:46.244Z,12.20
2022-12-08T13:03:14.177Z,10.50
2022-12-08T13:05:48.930Z,11.00
2022-12-08T13:08:23.136Z,14.70
2022-12-08T13:10:57.691Z,11.20
2022-12-08T13:13:24.121Z,19.10
2022-12-08T13:15:51.763Z,12.30
2022-12-08T13:18:25.988Z,26.30
2022-12-08T13:20:54.480Z,31.00
2022-12-08T13:23:36.321Z,39.40
2022-12-08T13:26:19.866Z,41.70
2022-12-08T13:28:58.736Z,26.20
2022-12-08T13:31:34.453Z,22.40
2022-12-08T13:34:03.469Z,34.10
2022-12-08T13:36:34.884Z,37.70
2022-12-08T13:39:01.549Z,34.20
2022-12-08T13:41:34.014Z,33.60
2022-12-08T13:45:18.163Z,41.10
2022-12-08T13:58:29.095Z,38.50
2022-12-08T14:01:15.681Z,52.20
2022-12-08T14:04:12.790Z,33.30
2022-12-08T14:06:37.737Z,38.80
2022-12-08T14:09:11.442Z,27.50
2022-12-08T14:11:47.165Z,23.60
2022-12-08T14:14:45.765Z,28.00
2022-12-08T14:17:12.171Z,33.70
2022-12-08T14:19:38.737Z,36.40
2022-12-08T14:22:07.863Z,27.20
2022-12-08T14:24:34.329Z,46.30
2022-12-08T14:27:02.644Z,69.20
2022-12-08T14:29:43.528Z,107.20
2022-12-08T14:32:29.474Z,90.20
2022-12-08T14:35:16.062Z,53.40
2022-12-08T14:37:43.856Z,40.30
2022-12-08T14:40:28.863Z,50.50
2022-12-08T14:43:07.351Z,50.20
2022-12-08T14:45:39.430Z,76.90
2022-12-08T14:48:18.094Z,82.20
2022-12-08T14:50:45.982Z,85.90
2022-12-08T14:53:14.304Z,97.90
2022-12-08T14:55:41.980Z,240.20
2022-12-08T14:58:16.768Z,111.30
2022-12-08T15:00:48.028Z,98.50
2022-12-08T15:05:42.028Z,45.30
2022-12-08T15:08:12.206Z,50.10
2022-12-08T15:10:39.371Z,46.90
2022-12-08T15:13:06.760Z,77.50
2022-12-08T15:15:45.600Z,63.60
2022-12-08T15:18:17.244Z,94.80
2022-12-08T15:20:45.203Z,103.40
2022-12-08T15:23:23.475Z,104.30
2022-12-08T15:25:49.796Z,137.00
2022-12-08T15:28:17.493Z,82.70
2022-12-08T15:30:43.808Z,83.60
2022-12-08T15:33:10.206Z,115.30
2022-12-08T15:35:40.779Z,395.50
2022-12-08T15:38:16.006Z,244.10
2022-12-08T15:40:42.268Z,198.60
2022-12-08T15:43:10.030Z,216.90
2022-12-08T15:45:36.494Z,136.50
2022-12-08T15:48:03.047Z,278.90
2022-12-08T15:50:29.396Z,144.70
2022-12-08T15:52:55.715Z,69.60
2022-12-08T15:55:22.135Z,98.80
2022-12-08T16:00:52.407Z,112.10
2022-12-08T16:03:59.855Z,92.90
2022-12-08T16:09:11.974Z,139.90
2022-12-08T16:12:06.605Z,143.80
2022-12-08T16:15:39.854Z,157.60
2022-12-08T16:17:20.563Z,119.30
2022-12-08T16:19:46.974Z,99.10
2022-12-08T16:22:52.473Z,89.20
2022-12-08T16:25:17.719Z,62.40
2022-12-08T16:30:32.022Z,44.40
2022-12-08T16:32:58.418Z,26.80
2022-12-08T16:35:24.691Z,89.10
2022-12-08T16:37:51.133Z,106.80
2022-12-08T16:40:17.800Z,115.50
2022-12-08T16:42:45.315Z,179.60
2022-12-08T16:45:20.244Z,136.30
2022-12-08T16:47:47.757Z,101.60
2022-12-08T16:50:19.060Z,93.50
2022-12-08T16:52:46.410Z,40.90
2022-12-08T16:55:15.541Z,126.10
2022-12-08T16:57:42.277Z,43.70
2022-12-08T17:00:10.618Z,39.70
2022-12-08T17:02:37.219Z,46.40
2022-12-08T17:05:04.038Z,34.80
2022-12-08T17:07:31.290Z,37.50
2022-12-08T17:09:57.924Z,32.00
2022-12-08T17:12:24.360Z,34.20
2022-12-08T17:14:50.677Z,36.70
2022-12-08T17:17:17.017Z,96.40
2022-12-08T17:19:43.518Z,67.90
2022-12-08T17:22:09.874Z,71.80
2022-12-08T17:24:36.811Z,59.20
2022-12-08T17:27:03.651Z,95.30
2022-12-08T17:29:30.642Z,83.90
2022-12-08T17:31:57.741Z,92.40
2022-12-08T17:34:24.344Z,113.60
2022-12-08T17:36:51.075Z,142.60
2022-12-08T17:39:18.960Z,173.50
2022-12-08T17:41:45.917Z,265.10
2022-12-08T17:44:13.544Z,133.40
2022-12-08T17:46:43.390Z,75.80
2022-12-08T17:49:15.453Z,91.60
2022-12-08T17:51:42.076Z,436.90
2022-12-08T17:54:08.436Z,132.40
2022-12-08T17:56:34.763Z,164.50
2022-12-08T17:59:02.283Z,141.30
2022-12-08T18:01:28.829Z,76.70
2022-12-08T18:03:57.277Z,797.60
2022-12-08T18:06:26.862Z,741.30
2022-12-08T18:08:56.848Z,952.60
2022-12-08T18:11:23.513Z,126.70
2022-12-08T18:13:50.208Z,225.20
2022-12-08T18:16:18.251Z,236.70
2022-12-08T18:18:44.590Z,185.50
2022-12-08T18:21:11.173Z,159.60
2022-12-08T18:23:38.497Z,570.90
2022-12-08T18:26:05.304Z,365.50
2022-12-08T18:28:31.635Z,305.50
2022-12-08T18:30:58.006Z,270.40
2022-12-08T18:33:25.118Z,195.80
2022-12-08T18:35:51.639Z,188.50
2022-12-08T18:38:18.103Z,266.10
2022-12-08T18:40:44.549Z,335.00
2022-12-08T18:43:10.838Z,329.70
2022-12-08T18:45:39.057Z,172.80
2022-12-08T18:48:07.800Z,172.10
2022-12-08T18:50:34.341Z,107.90
2022-12-08T18:53:00.692Z,54.10
2022-12-08T18:55:26.995Z,50.10
2022-12-08T18:57:53.594Z,71.80
2022-12-08T19:00:20.330Z,213.70
2022-12-08T19:02:46.809Z,232.80
2022-12-08T19:05:13.421Z,175.30
2022-12-08T19:07:41.751Z,168.30
2022-12-08T19:10:08.806Z,157.50
2022-12-08T19:12:35.434Z,173.40
2022-12-08T19:15:01.813Z,202.40
2022-12-08T19:17:29.125Z,147.30
2022-12-08T19:19:55.464Z,144.40
2022-12-08T19:22:21.825Z,123.90
2022-12-08T19:24:48.169Z,117.60
2022-12-08T19:27:14.466Z,103.80
2022-12-08T19:29:40.820Z,78.00
2022-12-08T19:32:07.210Z,101.70
2022-12-08T19:34:33.658Z,81.10
2022-12-08T19:37:00.044Z,85.20
2022-12-08T19:39:45.458Z,119.70
2022-12-08T19:42:34.178Z,114.70
2022-12-08T19:45:03.388Z,123.00
2022-12-08T19:47:29.770Z,87.00
2022-12-08T19:50:16.329Z,74.60
2022-12-08T19:52:43.292Z,66.80
2022-12-08T19:55:09.869Z,58.50
2022-12-08T19:57:36.312Z,71.00
2022-12-08T20:00:04.093Z,82.40
2022-12-08T20:02:36.096Z,120.60
2022-12-08T20:05:03.713Z,77.40
2022-12-08T20:07:30.364Z,171.80
2022-12-08T20:09:56.697Z,66.30
2022-12-08T20:12:23.010Z,114.50
2022-12-08T20:14:49.364Z,132.50
2022-12-08T20:17:15.704Z,183.60
2022-12-08T20:19:42.284Z,153.30
2022-12-08T20:22:08.827Z,171.50
2022-12-08T20:24:35.671Z,185.90
2022-12-08T20:27:02.027Z,119.00
2022-12-08T20:29:28.477Z,99.00
2022-12-08T20:31:54.894Z,89.00
2022-12-08T20:34:21.492Z,80.70
2022-12-08T20:36:48.198Z,77.70
2022-12-08T20:39:15.861Z,83.70
2022-12-08T20:41:43.261Z,81.60
2022-12-08T20:44:10.252Z,64.30
2022-12-08T20:46:37.010Z,88.10
2022-12-08T20:49:03.930Z,91.20
2022-12-08T20:51:32.131Z,65.30
2022-12-08T20:53:58.968Z,62.30
2022-12-08T20:56:25.448Z,64.00
2022-12-08T20:58:53.100Z,49.30
2022-12-08T21:01:20.994Z,43.30
2022-12-08T21:03:48.344Z,35.70
2022-12-08T21:06:19.974Z,32.50
2022-12-08T21:08:46.498Z,47.20
2022-12-08T21:11:13.120Z,34.40
2022-12-08T21:13:39.903Z,28.10
2022-12-08T21:16:08.514Z,42.10
2022-12-08T21:18:39.480Z,51.80
2022-12-08T21:21:08.877Z,43.30
2022-12-08T21:23:35.950Z,24.90
2022-12-08T21:26:08.126Z,34.60
2022-12-08T21:28:34.488Z,34.20
2022-12-08T21:31:05.084Z,45.70
2022-12-08T21:33:31.740Z,36.40
2022-12-08T21:36:07.521Z,40.00
2022-12-08T21:38:34.842Z,56.90
2022-12-08T21:41:03.157Z,98.30
2022-12-08T21:43:29.760Z,53.50
2022-12-08T21:45:56.392Z,79.20
2022-12-08T21:48:22.949Z,85.60
2022-12-08T21:50:49.667Z,83.90
2022-12-08T21:53:16.265Z,105.20
2022-12-08T21:55:42.620Z,94.50
2022-12-08T21:58:09.032Z,84.90
2022-12-08T22:00:35.622Z,90.00
2022-12-08T22:03:02.900Z,129.60
2022-12-08T22:05:29.566Z,80.80
2022-12-08T22:07:56.389Z,84.90
2022-12-08T22:10:23.052Z,70.00
2022-12-08T22:12:49.545Z,74.30
2022-12-08T22:15:16.087Z,66.90
2022-12-08T22:17:43.026Z,86.80
2022-12-08T22:20:11.947Z,81.90
2022-12-08T22:22:39.226Z,90.80
2022-12-08T22:25:06.960Z,77.90
2022-12-08T22:27:33.823Z,79.30
2022-12-08T22:30:00.411Z,78.70
2022-12-08T22:32:27.128Z,73.00
2022-12-08T22:34:53.665Z,81.30
2022-12-08T22:37:20.256Z,79.30
2022-12-08T22:39:46.762Z,75.60
2022-12-08T22:42:14.596Z,71.60
2022-12-08T22:44:41.139Z,75.20
2022-12-08T22:47:07.773Z,61.20
2022-12-08T22:49:35.961Z,47.90
2022-12-08T22:52:02.536Z,60.50
2022-12-08T22:54:29.020Z,80.60
2022-12-08T22:56:55.385Z,77.50
2022-12-08T22:59:21.935Z,65.30
2022-12-08T23:01:48.774Z,60.20
2022-12-08T23:04:18.323Z,50.20
2022-12-08T23:06:45.113Z,49.80
2022-12-08T23:09:12.013Z,72.40
2022-12-08T23:11:38.700Z,58.40
2022-12-08T23:14:05.316Z,59.80
2022-12-08T23:16:32.999Z,64.10
2022-12-08T23:18:59.678Z,61.40
2022-12-08T23:21:26.443Z,58.30
2022-12-08T23:23:53.041Z,57.90
2022-12-08T23:26:24.331Z,70.40
2022-12-08T23:28:51.044Z,84.40
2022-12-08T23:31:17.896Z,71.80
2022-12-08T23:33:44.965Z,62.00
2022-12-08T23:36:11.901Z,58.70
2022-12-08T23:38:38.475Z,55.60
2022-12-08T23:41:06.048Z,55.60
2022-12-08T23:43:33.472Z,60.00
2022-12-08T23:46:00.585Z,56.70
2022-12-08T23:48:28.358Z,58.00
2022-12-08T23:50:56.637Z,51.90
2022-12-08T23:53:23.305Z,65.40
2022-12-08T23:55:49.751Z,53.70
2022-12-08T23:58:16.191Z,58.20
